createdAt,value
2019-03-21T00:01:06.085Z,65.06
2019-03-21T00:06:18.471Z,64.95
2019-03-21T00:12:04.955Z,64.81
2019-03-21T00:17:18.566Z,64.82
2019-03-21T00:22:34.785Z,64.73
2019-03-21T00:27:44.649Z,64.78
2019-03-21T00:33:02.727Z,64.72
2019-03-21T00:38:17.238Z,64.55
2019-03-21T00:43:31.942Z,64.69
2019-03-21T00:48:51.679Z,64.69
2019-03-21T00:54:12.632Z,64.60
2019-03-21T00:59:31.764Z,64.72
2019-03-21T01:04:51.048Z,64.76
2019-03-21T01:10:08.785Z,65.01
2019-03-21T01:15:25.031Z,64.94
2019-03-21T01:20:45.031Z,65.30
2019-03-21T01:26:00.906Z,65.47
2019-03-21T01:31:19.192Z,65.87
2019-03-21T01:36:40.278Z,66.01
2019-03-21T01:42:02.189Z,66.12
2019-03-21T01:47:12.381Z,66.25
2019-03-21T01:52:25.482Z,66.38
2019-03-21T01:57:38.351Z,66.28
2019-03-21T02:02:57.895Z,66.24
2019-03-21T02:08:14.334Z,66.21
2019-03-21T02:13:30.994Z,66.06
2019-03-21T02:18:47.351Z,66.29
2019-03-21T02:24:01.351Z,66.49
2019-03-21T02:29:15.029Z,66.51
2019-03-21T02:34:33.149Z,66.51
2019-03-21T02:39:59.369Z,66.46
2019-03-21T02:45:13.444Z,66.42
2019-03-21T02:50:33.611Z,66.47
2019-03-21T02:55:45.894Z,66.43
2019-03-21T03:00:58.442Z,66.37
2019-03-21T03:06:08.939Z,66.35
2019-03-21T03:11:20.269Z,66.47
2019-03-21T03:16:33.004Z,66.48
2019-03-21T03:21:41.363Z,66.56
2019-03-21T03:26:53.098Z,66.67
2019-03-21T03:32:13.957Z,67.34
2019-03-21T03:37:24.786Z,67.24
2019-03-21T03:42:39.133Z,67.25
2019-03-21T03:47:49.065Z,67.12
2019-03-21T03:53:02.696Z,67.02
2019-03-21T03:58:20.750Z,67.00
2019-03-21T04:03:34.407Z,66.99
2019-03-21T04:08:54.474Z,66.99
2019-03-21T04:14:09.423Z,67.07
2019-03-21T04:19:23.641Z,67.08
2019-03-21T04:24:39.355Z,67.30
2019-03-21T04:29:54.199Z,67.50
2019-03-21T04:35:14.215Z,67.58
2019-03-21T04:40:29.522Z,67.64
2019-03-21T04:45:44.981Z,67.58
2019-03-21T04:51:01.278Z,67.60
2019-03-21T04:56:24.776Z,67.74
2019-03-21T05:01:43.937Z,67.83
2019-03-21T05:07:00.164Z,67.96
2019-03-21T05:12:19.118Z,67.91
2019-03-21T05:17:33.542Z,67.97
2019-03-21T05:22:48.743Z,67.85
2019-03-21T05:28:02.455Z,68.18
2019-03-21T05:33:21.035Z,68.29
2019-03-21T05:38:34.729Z,68.09
2019-03-21T05:44:06.853Z,68.30
2019-03-21T05:49:24.850Z,68.42
2019-03-21T05:54:39.308Z,68.41
2019-03-21T06:00:01.833Z,68.39
2019-03-21T06:05:17.707Z,68.33
2019-03-21T06:10:31.305Z,68.38
2019-03-21T06:15:42.540Z,68.52
2019-03-21T06:21:14.051Z,68.42
2019-03-21T06:27:13.749Z,68.42
2019-03-21T06:32:24.493Z,68.67
2019-03-21T06:37:46.923Z,69.42
2019-03-21T06:42:59.403Z,69.48
2019-03-21T06:48:15.204Z,69.57
2019-03-21T06:53:36.137Z,69.38
2019-03-21T06:58:49.674Z,69.33
2019-03-21T07:04:06.947Z,68.95
2019-03-21T07:09:16.583Z,68.81
2019-03-21T07:14:32.905Z,68.81
2019-03-21T07:19:45.026Z,69.10
2019-03-21T07:25:04.659Z,69.16
2019-03-21T07:30:21.423Z,69.33
2019-03-21T07:35:44.780Z,69.35
2019-03-21T07:41:04.521Z,68.49
2019-03-21T07:46:21.774Z,68.25
2019-03-21T07:51:40.714Z,67.25
2019-03-21T07:56:53.097Z,67.47
2019-03-21T08:02:00.914Z,67.02
2019-03-21T08:07:16.251Z,66.62
2019-03-21T08:12:32.416Z,65.84
2019-03-21T08:17:45.541Z,65.32
2019-03-21T08:22:56.398Z,65.71
2019-03-21T08:28:08.166Z,65.14
2019-03-21T08:33:25.317Z,65.27
2019-03-21T08:38:41.526Z,65.26
2019-03-21T08:43:56.745Z,64.60
2019-03-21T08:49:11.143Z,63.46
2019-03-21T08:54:24.206Z,63.48
2019-03-21T08:59:39.719Z,62.74
2019-03-21T09:05:01.294Z,62.17
2019-03-21T09:10:14.248Z,60.90
2019-03-21T09:15:29.418Z,60.47
2019-03-21T09:20:49.191Z,60.61
2019-03-21T09:25:59.167Z,60.41
2019-03-21T09:31:19.418Z,59.74
2019-03-21T09:36:52.617Z,59.66
2019-03-21T09:42:06.696Z,59.21
2019-03-21T09:47:21.352Z,59.24
2019-03-21T09:52:39.625Z,57.85
2019-03-21T09:57:58.634Z,56.22
2019-03-21T10:03:12.041Z,56.57
2019-03-21T10:08:26.183Z,56.47
2019-03-21T10:13:40.096Z,54.43
2019-03-21T10:18:59.942Z,54.67
2019-03-21T10:24:18.255Z,54.64
2019-03-21T10:29:33.577Z,50.19
2019-03-21T10:34:44.406Z,48.91
2019-03-21T10:39:57.137Z,49.51
2019-03-21T10:45:10.790Z,46.87
2019-03-21T10:50:32.102Z,47.53
2019-03-21T10:55:45.606Z,41.23
2019-03-21T11:01:00.875Z,42.54
2019-03-21T11:06:10.377Z,44.24
2019-03-21T11:11:25.065Z,44.65
2019-03-21T11:16:41.385Z,41.24
2019-03-21T11:21:52.980Z,40.80
2019-03-21T11:27:09.221Z,38.93
2019-03-21T11:32:17.116Z,37.18
2019-03-21T11:37:35.206Z,37.25
2019-03-21T11:42:54.988Z,39.54
2019-03-21T11:48:14.309Z,36.85
2019-03-21T11:53:34.123Z,35.41
2019-03-21T11:58:49.465Z,36.97
2019-03-21T12:04:05.196Z,40.45
2019-03-21T12:09:26.693Z,41.90
2019-03-21T12:14:36.823Z,39.24
2019-03-21T12:19:54.854Z,36.30
2019-03-21T12:25:11.204Z,34.06
2019-03-21T12:30:25.181Z,33.61
2019-03-21T12:35:41.448Z,35.83
2019-03-21T12:41:01.386Z,32.48
2019-03-21T12:46:13.554Z,31.59
2019-03-21T12:51:28.040Z,31.00
2019-03-21T12:56:45.161Z,29.74
2019-03-21T13:02:04.935Z,30.48
2019-03-21T13:07:23.829Z,30.87
2019-03-21T13:12:38.721Z,32.01
2019-03-21T13:18:00.382Z,31.92
2019-03-21T13:23:13.000Z,30.27
2019-03-21T13:28:32.138Z,29.10
2019-03-21T13:33:42.506Z,29.39
2019-03-21T13:38:58.150Z,29.33
2019-03-21T13:44:17.893Z,30.42
2019-03-21T13:49:41.414Z,29.93
2019-03-21T13:55:00.395Z,29.55
2019-03-21T14:00:12.257Z,29.78
2019-03-21T14:05:28.838Z,28.81
2019-03-21T14:10:41.042Z,29.69
2019-03-21T14:16:06.089Z,28.08
2019-03-21T14:21:24.168Z,28.17
2019-03-21T14:26:42.094Z,28.54
2019-03-21T14:31:55.559Z,29.49
2019-03-21T14:37:03.417Z,27.72
2019-03-21T14:42:23.414Z,28.11
2019-03-21T14:47:41.666Z,27.00
2019-03-21T14:53:04.150Z,28.44
2019-03-21T14:58:23.878Z,29.23
2019-03-21T15:03:34.044Z,27.97
2019-03-21T15:08:50.245Z,26.32
2019-03-21T15:14:02.958Z,26.43
2019-03-21T15:19:21.096Z,29.20
2019-03-21T15:24:37.510Z,31.54
2019-03-21T15:29:51.117Z,33.52
2019-03-21T15:35:05.510Z,34.65
2019-03-21T15:40:17.681Z,35.65
2019-03-21T15:45:32.972Z,36.27
2019-03-21T15:50:47.499Z,37.49
2019-03-21T15:56:01.963Z,37.77
2019-03-21T16:01:14.686Z,38.21
2019-03-21T16:06:30.978Z,38.89
2019-03-21T16:11:47.366Z,40.46
2019-03-21T16:17:01.813Z,40.25
2019-03-21T16:22:19.089Z,40.24
2019-03-21T16:27:34.419Z,39.93
2019-03-21T16:32:42.786Z,40.12
2019-03-21T16:37:54.950Z,41.26
2019-03-21T16:43:07.368Z,42.48
2019-03-21T16:48:29.325Z,43.71
2019-03-21T16:53:44.020Z,44.14
2019-03-21T16:58:58.771Z,44.19
2019-03-21T17:04:10.280Z,44.55
2019-03-21T17:09:26.475Z,44.74
2019-03-21T17:14:39.083Z,45.54
2019-03-21T17:19:55.302Z,45.20
2019-03-21T17:25:10.627Z,44.87
2019-03-21T17:30:27.110Z,44.52
2019-03-21T17:35:44.233Z,45.38
2019-03-21T17:41:02.791Z,45.60
2019-03-21T17:46:21.754Z,45.58
2019-03-21T17:51:36.965Z,46.00
2019-03-21T17:56:56.778Z,46.39
2019-03-21T18:02:06.600Z,47.12
2019-03-21T18:07:19.177Z,47.31
2019-03-21T18:12:34.531Z,47.85
2019-03-21T18:17:47.101Z,48.08
2019-03-21T18:22:58.320Z,48.46
2019-03-21T18:28:09.022Z,48.84
2019-03-21T18:33:19.359Z,48.82
2019-03-21T18:38:40.743Z,48.79
2019-03-21T18:43:56.693Z,49.21
2019-03-21T18:49:13.969Z,49.86
2019-03-21T18:54:23.919Z,50.00
2019-03-21T18:59:34.840Z,50.22
2019-03-21T19:04:44.357Z,51.20
2019-03-21T19:09:55.219Z,50.79
2019-03-21T19:15:04.934Z,51.08
2019-03-21T19:20:15.638Z,51.48
2019-03-21T19:27:04.774Z,52.36
2019-03-21T19:32:16.035Z,52.66
2019-03-21T19:37:34.030Z,53.40
2019-03-21T19:42:49.258Z,53.91
2019-03-21T19:48:05.513Z,55.29
2019-03-21T19:53:18.120Z,55.68
2019-03-21T19:58:35.763Z,55.84
2019-03-21T20:03:57.317Z,56.60
2019-03-21T20:09:12.696Z,57.20
2019-03-21T20:14:23.717Z,57.49
2019-03-21T20:19:40.838Z,57.80
2019-03-21T20:24:52.529Z,58.13
2019-03-21T20:30:07.078Z,57.67
2019-03-21T20:35:16.286Z,58.57
2019-03-21T20:40:27.668Z,58.11
2019-03-21T20:45:42.034Z,58.66
2019-03-21T20:50:59.048Z,58.93
2019-03-21T20:56:14.310Z,58.87
2019-03-21T21:01:27.879Z,59.97
2019-03-21T21:06:46.053Z,59.39
2019-03-21T21:11:58.700Z,59.53
2019-03-21T21:17:17.770Z,59.15
2019-03-21T21:22:38.485Z,60.04
2019-03-21T21:27:52.103Z,59.59
2019-03-21T21:33:03.840Z,58.69
2019-03-21T21:38:13.342Z,58.69
2019-03-21T21:43:27.814Z,59.72
2019-03-21T21:48:44.276Z,60.08
2019-03-21T21:53:59.597Z,60.17
2019-03-21T21:59:14.027Z,60.55
2019-03-21T22:04:27.690Z,63.04
2019-03-21T22:09:48.455Z,63.04
2019-03-21T22:15:02.003Z,64.16
2019-03-21T22:20:10.430Z,63.84
2019-03-21T22:25:25.709Z,64.67
2019-03-21T22:30:39.419Z,65.58
2019-03-21T22:35:57.526Z,66.85
2019-03-21T22:41:13.517Z,66.93
2019-03-21T22:46:33.320Z,67.37
2019-03-21T22:51:50.388Z,68.13
2019-03-21T22:57:07.410Z,67.53
2019-03-21T23:02:19.190Z,67.87
2019-03-21T23:07:37.191Z,68.92
2019-03-21T23:12:47.628Z,69.04
2019-03-21T23:18:03.913Z,68.48
2019-03-21T23:23:16.512Z,69.02
2019-03-21T23:28:33.798Z,69.23
2019-03-21T23:33:59.603Z,68.72
2019-03-21T23:39:10.374Z,68.03
2019-03-21T23:44:23.488Z,68.44
2019-03-21T23:49:35.676Z,68.91
2019-03-21T23:54:58.246Z,68.13
